EDFM

Mannheim City Airport

Mannheim, Germany
METAR EDFM 241150Z 08011KT 040V110 CAVOK 05/M12 Q1020
Observed Flight Rules
Feb-24 @ 11:50 UTC (30 minutes ago) Visual Flight Rules
Wind Visibility Clouds
80° at 11 knots 10,000+ meters
  • Clear skies
Temperatures Readings
Current 5°C / 41°F
Dewpoint -12°C / 10°F
Humidity 28%
Altimeter 30.12" Hg
Pressure 1020 hPa
Elevation 100
METAR EDFM 241150Z 08011KT 040V110 CAVOK 05/M12 Q1020
Observed Flight Rules
Feb-24 @ 11:50 UTC
(30 minutes ago)
VFR
Wind Visibility
80° at 11 knots 10,000+ meters
Clouds
  • Clear skies
Temperature Dewpoint
5°C / 41°F -12°C / 10°F
Humidity Altimeter Pressure
28% 30.12" Hg 1020 hPa